createdAt,value
2022-08-23T00:02:22.967Z,16.77
2022-08-23T00:05:03.500Z,16.81
2022-08-23T00:07:42.233Z,16.82
2022-08-23T00:10:12.207Z,16.91
2022-08-23T00:12:40.465Z,16.79
2022-08-23T00:15:10.308Z,16.83
2022-08-23T00:17:37.754Z,16.76
2022-08-23T00:20:10.024Z,16.71
2022-08-23T00:22:40.220Z,16.86
2022-08-23T00:25:09.994Z,16.82
2022-08-23T00:27:37.012Z,16.76
2022-08-23T00:30:07.361Z,16.82
2022-08-23T00:32:37.823Z,16.85
2022-08-23T00:35:05.751Z,16.92
2022-08-23T00:37:34.014Z,16.79
2022-08-23T00:40:02.115Z,16.76
2022-08-23T00:42:56.994Z,16.72
2022-08-23T00:46:19.213Z,16.71
2022-08-23T00:48:46.755Z,16.74
2022-08-23T00:51:30.588Z,16.76
2022-08-23T00:54:00.437Z,16.64
2022-08-23T00:56:31.358Z,16.60
2022-08-23T00:58:58.634Z,16.52
2022-08-23T01:01:26.416Z,16.47
2022-08-23T01:04:04.879Z,16.47
2022-08-23T01:06:42.503Z,16.44
2022-08-23T01:09:13.877Z,16.51
2022-08-23T01:11:56.567Z,16.59
2022-08-23T01:14:43.810Z,16.66
2022-08-23T01:17:22.754Z,16.60
2022-08-23T01:19:57.793Z,16.61
2022-08-23T01:22:35.281Z,16.60
2022-08-23T01:25:08.453Z,16.63
2022-08-23T01:27:42.412Z,16.59
2022-08-23T01:30:16.227Z,16.74
2022-08-23T01:32:58.415Z,16.65
2022-08-23T01:35:43.405Z,16.63
2022-08-23T01:38:12.313Z,16.48
2022-08-23T01:40:40.652Z,16.54
2022-08-23T01:43:09.151Z,16.56
2022-08-23T01:45:39.833Z,16.53
2022-08-23T01:48:08.842Z,16.59
2022-08-23T01:53:23.936Z,16.50
2022-08-23T01:55:51.115Z,16.56
2022-08-23T01:58:20.262Z,16.54
2022-08-23T02:00:47.535Z,16.62
2022-08-23T02:03:16.013Z,16.69
2022-08-23T02:05:43.360Z,16.45
2022-08-23T02:08:30.487Z,16.70
2022-08-23T02:10:59.446Z,16.75
2022-08-23T02:13:27.233Z,16.78
2022-08-23T02:15:55.301Z,16.65
2022-08-23T02:18:23.685Z,16.70
2022-08-23T02:20:52.726Z,16.65
2022-08-23T02:23:21.171Z,16.57
2022-08-23T02:25:48.435Z,16.51
2022-08-23T02:28:15.487Z,16.54
2022-08-23T02:30:45.425Z,16.70
2022-08-23T02:33:14.900Z,16.62
2022-08-23T02:35:44.330Z,16.77
2022-08-23T02:38:13.047Z,16.71
2022-08-23T02:40:41.546Z,16.59
2022-08-23T02:43:08.784Z,16.72
2022-08-23T02:45:37.443Z,16.60
2022-08-23T02:48:05.175Z,16.51
2022-08-23T02:50:41.104Z,16.53
2022-08-23T02:53:08.658Z,16.52
2022-08-23T02:55:35.792Z,16.47
2022-08-23T02:58:02.885Z,16.50
2022-08-23T03:00:30.059Z,16.47
2022-08-23T03:02:57.478Z,16.50
2022-08-23T03:05:25.233Z,16.54
2022-08-23T03:07:52.298Z,16.53
2022-08-23T03:10:19.283Z,16.49
2022-08-23T03:12:52.770Z,16.38
2022-08-23T03:15:19.892Z,16.54
2022-08-23T03:17:47.019Z,16.42
2022-08-23T03:20:14.208Z,16.39
2022-08-23T03:22:48.382Z,16.41
2022-08-23T03:25:22.823Z,16.44
2022-08-23T03:28:08.970Z,16.41
2022-08-23T03:30:40.465Z,16.56
2022-08-23T03:33:08.816Z,16.44
2022-08-23T03:35:35.964Z,16.52
2022-08-23T03:38:04.224Z,16.46
2022-08-23T03:40:31.319Z,16.44
2022-08-23T03:42:58.316Z,16.39
2022-08-23T03:45:28.316Z,16.41
2022-08-23T03:47:55.908Z,16.30
2022-08-23T03:50:23.934Z,16.38
2022-08-23T03:52:51.802Z,16.48
2022-08-23T03:55:18.911Z,16.51
2022-08-23T03:57:49.259Z,16.53
2022-08-23T04:00:20.458Z,16.55
2022-08-23T04:02:50.076Z,16.53
2022-08-23T04:05:17.530Z,16.57
2022-08-23T04:07:50.573Z,16.63
2022-08-23T04:10:20.226Z,16.79
2022-08-23T04:12:50.168Z,16.62
2022-08-23T04:15:19.790Z,16.53
2022-08-23T04:17:48.129Z,16.54
2022-08-23T04:20:16.913Z,16.56
2022-08-23T04:23:04.173Z,16.62
2022-08-23T04:25:36.806Z,16.70
2022-08-23T04:28:05.878Z,16.72
2022-08-23T04:30:34.135Z,16.76
2022-08-23T04:33:03.140Z,16.74
2022-08-23T04:35:39.094Z,16.68
2022-08-23T04:38:24.270Z,16.70
2022-08-23T04:41:13.393Z,16.99
2022-08-23T04:43:42.234Z,16.95
2022-08-23T04:46:15.547Z,16.82
2022-08-23T04:48:45.957Z,16.86
2022-08-23T04:51:13.397Z,16.87
2022-08-23T04:53:41.708Z,16.80
2022-08-23T04:56:38.870Z,16.78
2022-08-23T04:59:07.867Z,16.74
2022-08-23T05:01:42.954Z,16.71
2022-08-23T05:04:10.904Z,16.80
2022-08-23T05:06:40.063Z,16.93
2022-08-23T05:09:07.045Z,16.93
2022-08-23T05:11:35.698Z,17.11
2022-08-23T05:14:03.020Z,17.25
2022-08-23T05:16:30.614Z,17.32
2022-08-23T05:19:03.116Z,17.37
2022-08-23T05:21:32.580Z,17.25
2022-08-23T05:24:00.696Z,17.14
2022-08-23T05:26:30.943Z,17.14
2022-08-23T05:28:57.958Z,17.32
2022-08-23T05:31:30.668Z,17.42
2022-08-23T05:34:00.987Z,17.42
2022-08-23T05:36:47.632Z,17.61
2022-08-23T05:39:33.001Z,17.54
2022-08-23T05:42:11.527Z,17.59
2022-08-23T05:44:38.574Z,17.61
2022-08-23T05:47:12.278Z,17.56
2022-08-23T05:50:15.722Z,17.71
2022-08-23T05:52:42.944Z,17.84
2022-08-23T05:55:10.911Z,17.88
2022-08-23T05:57:40.805Z,18.06
2022-08-23T06:00:14.381Z,17.86
2022-08-23T06:02:49.382Z,17.93
2022-08-23T06:05:19.809Z,17.87
2022-08-23T06:07:49.559Z,17.77
2022-08-23T06:10:20.951Z,17.93
2022-08-23T06:13:03.638Z,18.01
2022-08-23T06:15:31.665Z,18.20
2022-08-23T06:17:59.767Z,18.07
2022-08-23T06:20:27.253Z,18.10
2022-08-23T06:23:00.270Z,18.20
2022-08-23T06:25:29.150Z,17.97
2022-08-23T06:28:07.599Z,18.22
2022-08-23T06:30:40.066Z,18.18
2022-08-23T06:33:21.165Z,18.29
2022-08-23T06:36:13.863Z,18.07
2022-08-23T06:39:14.141Z,18.02
2022-08-23T06:42:13.302Z,18.31
2022-08-23T06:44:50.996Z,18.43
2022-08-23T06:47:27.094Z,18.60
2022-08-23T06:49:57.858Z,18.85
2022-08-23T06:52:49.056Z,19.02
2022-08-23T06:55:36.634Z,19.24
2022-08-23T06:58:15.305Z,19.40
2022-08-23T07:01:35.068Z,19.27
2022-08-23T07:04:20.046Z,19.28
2022-08-23T07:07:11.337Z,19.23
2022-08-23T07:09:40.904Z,19.62
2022-08-23T07:12:08.450Z,19.81
2022-08-23T07:14:38.554Z,19.54
2022-08-23T07:17:05.780Z,19.41
2022-08-23T07:19:34.864Z,19.30
2022-08-23T07:22:04.337Z,19.31
2022-08-23T07:24:33.847Z,19.14
2022-08-23T07:27:07.320Z,19.31
2022-08-23T07:29:38.314Z,19.08
2022-08-23T07:32:06.202Z,19.23
2022-08-23T07:34:36.040Z,18.97
2022-08-23T07:37:04.416Z,18.89
2022-08-23T07:39:38.394Z,19.16
2022-08-23T07:42:22.697Z,19.14
2022-08-23T07:44:53.814Z,19.32
2022-08-23T07:47:23.085Z,19.27
2022-08-23T07:49:51.412Z,19.30
2022-08-23T07:52:18.759Z,19.29
2022-08-23T07:54:48.696Z,19.28
2022-08-23T07:57:42.214Z,19.47
2022-08-23T08:00:32.287Z,19.31
2022-08-23T08:03:14.093Z,19.58
2022-08-23T08:06:07.317Z,19.33
2022-08-23T08:08:34.591Z,19.62
2022-08-23T08:11:01.787Z,19.78
2022-08-23T08:13:29.729Z,19.77
2022-08-23T08:15:57.208Z,19.91
2022-08-23T08:18:27.459Z,19.64
2022-08-23T08:21:16.528Z,19.75
2022-08-23T08:24:00.830Z,19.61
2022-08-23T08:26:47.152Z,19.58
2022-08-23T08:29:14.916Z,20.06
2022-08-23T08:31:46.766Z,20.43
2022-08-23T08:34:14.330Z,20.74
2022-08-23T08:36:43.485Z,20.73
2022-08-23T08:39:24.075Z,20.71
2022-08-23T08:42:19.528Z,21.11
2022-08-23T08:44:58.225Z,21.01
2022-08-23T08:47:41.160Z,20.27
2022-08-23T08:50:16.398Z,20.05
2022-08-23T08:53:03.974Z,19.80
2022-08-23T08:56:12.799Z,19.70
2022-08-23T08:58:51.390Z,19.63
2022-08-23T09:01:21.928Z,19.51
2022-08-23T09:03:52.375Z,19.68
2022-08-23T09:06:28.529Z,19.71
2022-08-23T09:09:15.065Z,20.11
2022-08-23T09:11:58.722Z,20.01
2022-08-23T09:14:28.548Z,20.23
2022-08-23T09:17:05.845Z,20.36
2022-08-23T09:19:37.523Z,20.23
2022-08-23T09:22:13.655Z,20.60
2022-08-23T09:24:42.051Z,21.08
2022-08-23T09:27:22.596Z,20.62
2022-08-23T09:30:01.346Z,20.63
2022-08-23T09:32:34.242Z,20.97
2022-08-23T09:35:14.670Z,20.99
2022-08-23T09:37:57.899Z,21.61
2022-08-23T09:40:38.631Z,22.26
2022-08-23T09:43:14.762Z,22.70
2022-08-23T09:46:04.552Z,23.10
2022-08-23T09:48:44.304Z,23.04
2022-08-23T09:51:34.993Z,22.90
2022-08-23T09:54:23.326Z,22.68
2022-08-23T09:56:59.863Z,22.65
2022-08-23T09:59:27.462Z,22.55
2022-08-23T10:02:02.576Z,22.28
2022-08-23T10:04:37.416Z,22.03
2022-08-23T10:07:40.370Z,21.79
2022-08-23T10:10:17.835Z,21.89
2022-08-23T10:12:46.653Z,21.60
2022-08-23T10:15:15.708Z,21.43
2022-08-23T10:17:47.425Z,21.69
2022-08-23T10:20:29.362Z,21.56
2022-08-23T10:23:07.083Z,21.76
2022-08-23T10:25:55.247Z,22.04
2022-08-23T10:28:46.592Z,21.85
2022-08-23T10:31:35.881Z,21.53
2022-08-23T10:34:48.469Z,21.28
2022-08-23T10:38:02.743Z,21.04
2022-08-23T10:40:41.474Z,20.72
2022-08-23T10:43:26.197Z,20.81
2022-08-23T10:46:00.407Z,20.99
2022-08-23T10:48:43.986Z,21.07
2022-08-23T10:51:22.616Z,21.35
2022-08-23T10:53:57.141Z,21.50
2022-08-23T10:56:24.456Z,21.59
2022-08-23T10:59:00.077Z,21.21
2022-08-23T11:01:53.072Z,21.30
2022-08-23T11:04:41.261Z,21.09
2022-08-23T11:07:34.385Z,21.12
2022-08-23T11:10:26.596Z,21.03
2022-08-23T11:13:01.743Z,21.04
2022-08-23T11:15:58.794Z,21.13
2022-08-23T11:18:36.135Z,21.06
2022-08-23T11:21:09.912Z,21.12
2022-08-23T11:23:58.616Z,21.17
2022-08-23T11:26:27.659Z,21.12
2022-08-23T11:29:10.851Z,21.39
2022-08-23T11:31:51.180Z,21.42
2022-08-23T11:34:29.654Z,21.42
2022-08-23T11:37:30.505Z,21.53
2022-08-23T11:40:09.486Z,21.64
2022-08-23T11:42:37.789Z,21.51
2022-08-23T11:45:28.741Z,21.39
2022-08-23T11:48:16.537Z,21.31
2022-08-23T11:51:11.921Z,21.28
2022-08-23T11:53:41.910Z,21.34
2022-08-23T11:56:16.383Z,21.51
2022-08-23T11:59:15.379Z,21.58
2022-08-23T12:01:44.978Z,21.55
2022-08-23T12:04:26.149Z,21.35
2022-08-23T12:07:02.119Z,21.17
2022-08-23T12:09:29.446Z,20.96
2022-08-23T12:11:56.409Z,21.12
2022-08-23T12:14:32.244Z,21.09
2022-08-23T12:17:04.191Z,21.07
2022-08-23T12:19:40.551Z,21.21
2022-08-23T12:22:36.985Z,21.17
2022-08-23T12:25:08.209Z,21.31
2022-08-23T12:27:41.351Z,21.48
2022-08-23T12:30:11.101Z,21.55
2022-08-23T12:32:50.289Z,21.40
2022-08-23T12:35:30.403Z,21.46
2022-08-23T12:38:23.292Z,21.67
2022-08-23T12:40:54.618Z,22.06
2022-08-23T12:43:23.725Z,22.11
2022-08-23T12:45:56.931Z,22.10
2022-08-23T12:48:28.009Z,21.99
2022-08-23T12:50:57.074Z,22.38
2022-08-23T12:53:29.618Z,22.78
2022-08-23T12:56:04.702Z,22.94
2022-08-23T12:58:34.131Z,23.16
2022-08-23T13:01:03.823Z,23.40
2022-08-23T13:03:39.806Z,22.75
2022-08-23T13:06:11.879Z,22.59
2022-08-23T13:08:42.926Z,22.89
2022-08-23T13:11:21.936Z,22.61
2022-08-23T13:13:49.419Z,22.43
2022-08-23T13:16:27.980Z,22.23
2022-08-23T13:19:10.342Z,21.97
2022-08-23T13:21:40.006Z,22.00
2022-08-23T13:24:38.376Z,21.90
2022-08-23T13:27:26.492Z,21.90
2022-08-23T13:29:57.667Z,21.89
2022-08-23T13:32:49.679Z,22.09
2022-08-23T13:35:45.643Z,22.03
2022-08-23T13:38:20.834Z,22.09
2022-08-23T13:40:59.547Z,21.99
2022-08-23T13:43:32.551Z,21.92
2022-08-23T13:46:32.425Z,22.02
2022-08-23T13:49:12.049Z,21.71
2022-08-23T13:51:40.924Z,21.70
2022-08-23T13:54:10.924Z,21.60
2022-08-23T13:56:48.395Z,21.68
2022-08-23T13:59:31.267Z,21.71
2022-08-23T14:02:09.160Z,21.95
2022-08-23T14:04:36.342Z,22.14
2022-08-23T14:07:03.816Z,22.36
2022-08-23T14:09:30.933Z,22.24
2022-08-23T14:12:03.109Z,22.48
2022-08-23T14:14:33.402Z,22.62
2022-08-23T14:17:02.805Z,22.62
2022-08-23T14:22:19.434Z,23.12
2022-08-23T14:24:46.747Z,23.21
2022-08-23T14:27:14.735Z,22.94
2022-08-23T14:29:41.908Z,23.04
2022-08-23T14:32:08.944Z,23.19
2022-08-23T14:34:36.022Z,23.17
2022-08-23T14:39:50.423Z,22.70
2022-08-23T14:42:20.801Z,22.83
2022-08-23T14:44:48.362Z,22.88
2022-08-23T14:47:15.681Z,22.63
2022-08-23T14:49:42.853Z,22.90
2022-08-23T14:52:11.839Z,22.73
2022-08-23T14:54:39.168Z,22.31
2022-08-23T14:57:06.284Z,22.61
2022-08-23T14:59:33.411Z,22.68
2022-08-23T15:02:01.265Z,22.84
2022-08-23T15:04:34.731Z,23.05
2022-08-23T15:07:19.607Z,22.88
2022-08-23T15:09:54.608Z,22.53
2022-08-23T15:15:14.133Z,22.32
2022-08-23T15:17:51.936Z,22.43
2022-08-23T15:20:20.933Z,22.51
2022-08-23T15:22:55.403Z,22.42
2022-08-23T15:25:25.071Z,22.52
2022-08-23T15:27:52.968Z,22.58
2022-08-23T15:30:21.986Z,22.53
2022-08-23T15:32:52.147Z,22.58
2022-08-23T15:35:22.725Z,22.46
2022-08-23T15:37:50.478Z,22.21
2022-08-23T15:40:17.657Z,22.19
2022-08-23T15:42:44.752Z,22.03
2022-08-23T15:45:11.964Z,22.06
2022-08-23T15:48:07.199Z,22.01
2022-08-23T15:50:35.485Z,22.11
2022-08-23T15:53:02.853Z,21.81
2022-08-23T15:55:32.779Z,21.89
2022-08-23T15:58:00.389Z,21.92
2022-08-23T16:00:28.006Z,22.00
2022-08-23T16:03:19.198Z,22.10
2022-08-23T16:05:44.987Z,22.26
2022-08-23T16:08:17.558Z,22.06
2022-08-23T16:10:44.733Z,21.82
2022-08-23T16:13:11.780Z,21.90
2022-08-23T16:15:40.084Z,21.88
2022-08-23T16:18:08.189Z,21.78
2022-08-23T16:20:35.356Z,21.97
2022-08-23T16:23:02.513Z,21.86
2022-08-23T16:25:29.821Z,21.78
2022-08-23T16:27:57.046Z,21.86
2022-08-23T16:30:24.462Z,21.70
2022-08-23T16:32:51.519Z,21.69
2022-08-23T16:35:18.634Z,21.78
2022-08-23T16:37:45.578Z,21.82
2022-08-23T16:40:13.198Z,21.58
2022-08-23T16:42:40.648Z,21.33
2022-08-23T16:45:08.800Z,21.20
2022-08-23T16:47:41.136Z,21.11
2022-08-23T16:50:09.578Z,21.04
2022-08-23T16:52:37.088Z,21.02
2022-08-23T16:55:07.242Z,20.92
2022-08-23T16:57:34.474Z,20.89
2022-08-23T17:00:02.280Z,20.83
2022-08-23T17:02:33.456Z,20.76
2022-08-23T17:05:02.437Z,20.75
2022-08-23T17:07:29.575Z,20.74
2022-08-23T17:09:56.800Z,20.84
2022-08-23T17:12:23.756Z,21.02
2022-08-23T17:14:51.531Z,20.92
2022-08-23T17:17:18.659Z,20.97
2022-08-23T17:19:45.846Z,20.93
2022-08-23T17:22:13.557Z,20.84
2022-08-23T17:24:40.907Z,20.77
2022-08-23T17:27:08.124Z,20.72
2022-08-23T17:29:37.632Z,20.70
2022-08-23T17:32:04.925Z,20.66
2022-08-23T17:34:31.934Z,20.47
2022-08-23T17:37:00.108Z,20.41
2022-08-23T17:39:29.409Z,20.46
2022-08-23T17:41:58.041Z,20.39
2022-08-23T17:44:25.191Z,20.20
2022-08-23T17:46:53.188Z,20.17
2022-08-23T17:49:20.551Z,20.18
2022-08-23T17:51:47.670Z,20.11
2022-08-23T17:54:15.894Z,20.10
2022-08-23T17:56:49.936Z,20.23
2022-08-23T17:59:21.735Z,20.29
2022-08-23T18:01:48.982Z,20.20
2022-08-23T18:04:16.092Z,20.11
2022-08-23T18:06:43.170Z,20.22
2022-08-23T18:09:10.384Z,20.14
2022-08-23T18:11:37.737Z,20.11
2022-08-23T18:14:05.489Z,20.05
2022-08-23T18:16:35.641Z,20.04
2022-08-23T18:19:05.472Z,20.05
2022-08-23T18:21:33.225Z,20.43
2022-08-23T18:24:00.440Z,20.63
2022-08-23T18:26:46.483Z,20.47
2022-08-23T18:29:14.640Z,20.26
2022-08-23T18:31:44.218Z,20.16
2022-08-23T18:34:11.979Z,20.12
2022-08-23T18:36:39.201Z,20.05
2022-08-23T18:39:08.248Z,20.00
2022-08-23T18:41:35.651Z,19.95
2022-08-23T18:44:05.741Z,19.98
2022-08-23T18:46:39.066Z,20.01
2022-08-23T18:49:07.407Z,20.07
2022-08-23T18:51:34.485Z,20.16
2022-08-23T18:54:01.982Z,20.07
2022-08-23T18:56:29.032Z,20.02
2022-08-23T18:58:56.129Z,20.00
2022-08-23T19:01:35.918Z,19.98
2022-08-23T19:04:05.054Z,19.97
2022-08-23T19:06:32.380Z,19.93
2022-08-23T19:09:01.117Z,19.90
2022-08-23T19:11:29.479Z,19.86
2022-08-23T19:13:59.192Z,19.86
2022-08-23T19:16:26.872Z,19.83
2022-08-23T19:18:55.204Z,19.80
2022-08-23T19:21:24.516Z,19.80
2022-08-23T19:23:54.316Z,19.81
2022-08-23T19:26:31.770Z,19.85
2022-08-23T19:29:00.244Z,19.92
2022-08-23T19:31:33.524Z,20.08
2022-08-23T19:34:03.665Z,20.10
2022-08-23T19:36:45.661Z,20.12
2022-08-23T19:39:14.373Z,20.07
2022-08-23T19:41:42.002Z,20.07
2022-08-23T19:44:09.623Z,19.96
2022-08-23T19:46:42.026Z,20.04
2022-08-23T19:49:10.527Z,20.10
2022-08-23T19:51:38.491Z,20.16
2022-08-23T19:54:10.877Z,20.18
2022-08-23T19:56:51.918Z,20.08
2022-08-23T19:59:25.487Z,20.07
2022-08-23T20:01:53.742Z,20.06
2022-08-23T20:04:22.288Z,19.95
2022-08-23T20:06:49.483Z,20.00
2022-08-23T20:09:17.743Z,20.03
2022-08-23T20:11:45.210Z,20.08
2022-08-23T20:14:12.493Z,20.13
2022-08-23T20:16:41.622Z,20.17
2022-08-23T20:19:10.113Z,20.06
2022-08-23T20:21:38.753Z,20.14
2022-08-23T20:24:07.900Z,20.12
2022-08-23T20:26:41.219Z,20.12
2022-08-23T20:29:10.932Z,20.07
2022-08-23T20:31:46.446Z,20.04
2022-08-23T20:34:13.796Z,20.04
2022-08-23T20:36:40.757Z,20.00
2022-08-23T20:39:08.058Z,20.03
2022-08-23T20:41:37.582Z,20.04
2022-08-23T20:44:05.769Z,20.01
2022-08-23T20:46:33.371Z,19.98
2022-08-23T20:49:00.463Z,20.03
2022-08-23T20:51:28.846Z,20.02
2022-08-23T20:53:57.001Z,19.87
2022-08-23T20:56:25.332Z,19.80
2022-08-23T20:58:52.737Z,19.83
2022-08-23T21:01:20.020Z,19.96
2022-08-23T21:03:47.092Z,19.95
2022-08-23T21:06:19.945Z,19.92
2022-08-23T21:08:53.864Z,19.98
2022-08-23T21:11:22.792Z,20.03
2022-08-23T21:13:49.912Z,20.04
2022-08-23T21:16:18.176Z,20.00
2022-08-23T21:18:45.607Z,19.99
2022-08-23T21:21:13.645Z,19.95
2022-08-23T21:23:40.861Z,19.95
2022-08-23T21:26:09.103Z,19.87
2022-08-23T21:28:36.624Z,19.80
2022-08-23T21:31:09.016Z,19.89
2022-08-23T21:33:39.975Z,19.93
2022-08-23T21:36:11.535Z,19.85
2022-08-23T21:38:39.582Z,19.89
2022-08-23T21:41:11.056Z,19.79
2022-08-23T21:43:39.057Z,19.80
2022-08-23T21:46:07.407Z,19.81
2022-08-23T21:48:34.660Z,19.73
2022-08-23T21:51:01.806Z,19.89
2022-08-23T21:53:28.968Z,19.80
2022-08-23T21:55:55.950Z,19.74
2022-08-23T21:58:25.950Z,19.68
2022-08-23T22:00:53.007Z,19.73
2022-08-23T22:03:20.187Z,19.73
2022-08-23T22:05:48.105Z,19.71
2022-08-23T22:08:17.124Z,19.65
2022-08-23T22:10:57.269Z,19.59
2022-08-23T22:13:28.316Z,19.54
2022-08-23T22:15:55.480Z,19.62
2022-08-23T22:18:22.589Z,19.47
2022-08-23T22:20:49.656Z,19.56
2022-08-23T22:23:17.421Z,19.57
2022-08-23T22:25:44.623Z,19.64
2022-08-23T22:28:11.732Z,19.73
2022-08-23T22:30:38.912Z,19.71
2022-08-23T22:33:06.203Z,19.72
2022-08-23T22:35:35.258Z,19.61
2022-08-23T22:38:13.689Z,19.58
2022-08-23T22:40:51.860Z,19.63
2022-08-23T22:43:20.694Z,19.56
2022-08-23T22:45:58.786Z,19.46
2022-08-23T22:48:29.827Z,19.39
2022-08-23T22:51:06.547Z,19.42
2022-08-23T22:53:35.896Z,19.54
2022-08-23T22:56:04.216Z,19.51
2022-08-23T22:58:31.970Z,19.51
2022-08-23T23:00:59.412Z,19.48
2022-08-23T23:03:31.860Z,19.35
2022-08-23T23:05:58.836Z,19.34
2022-08-23T23:08:27.775Z,19.35
2022-08-23T23:11:05.763Z,19.35
2022-08-23T23:13:34.220Z,19.50
2022-08-23T23:16:11.536Z,19.48
2022-08-23T23:18:40.384Z,19.45
2022-08-23T23:21:08.566Z,19.52
2022-08-23T23:23:37.510Z,19.49
2022-08-23T23:26:08.195Z,19.52
2022-08-23T23:28:35.375Z,19.52
2022-08-23T23:31:03.518Z,19.53
2022-08-23T23:33:30.566Z,19.51
2022-08-23T23:35:57.577Z,19.50
2022-08-23T23:38:27.901Z,19.47
2022-08-23T23:40:55.059Z,19.42
2022-08-23T23:43:22.027Z,19.46
2022-08-23T23:45:49.054Z,19.49
2022-08-23T23:48:16.588Z,19.43
2022-08-23T23:50:45.028Z,19.38
2022-08-23T23:53:14.590Z,19.39
2022-08-23T23:55:42.511Z,19.32
2022-08-23T23:58:10.317Z,19.31
